sensor_id;sensor_type;location;lat;lon;timestamp;P1;durP1;ratioP1;P2;durP2;ratioP2
41709;SDS011;59402;48.396;-4.472;2023-03-05T00:01:05;9.57;;;4.32;;
41709;SDS011;59402;48.396;-4.472;2023-03-05T00:03:31;12.02;;;3.88;;
41709;SDS011;59402;48.396;-4.472;2023-03-05T00:05:57;9.70;;;3.90;;
41709;SDS011;59402;48.396;-4.472;2023-03-05T00:08:23;10.48;;;3.95;;
41709;SDS011;59402;48.396;-4.472;2023-03-05T00:10:59;8.65;;;3.80;;
41709;SDS011;59402;48.396;-4.472;2023-03-05T00:15:52;10.32;;;3.63;;
41709;SDS011;59402;48.396;-4.472;2023-03-05T00:18:18;9.43;;;4.18;;
41709;SDS011;59402;48.396;-4.472;2023-03-05T00:20:45;14.38;;;4.07;;
41709;SDS011;59402;48.396;-4.472;2023-03-05T00:23:11;13.20;;;3.75;;
41709;SDS011;59402;48.396;-4.472;2023-03-05T00:25:37;14.63;;;4.05;;
41709;SDS011;59402;48.396;-4.472;2023-03-05T00:28:03;9.00;;;3.83;;
41709;SDS011;59402;48.396;-4.472;2023-03-05T00:30:30;10.25;;;4.25;;
41709;SDS011;59402;48.396;-4.472;2023-03-05T00:32:56;10.97;;;3.80;;
41709;SDS011;59402;48.396;-4.472;2023-03-05T00:35:22;12.13;;;3.72;;
41709;SDS011;59402;48.396;-4.472;2023-03-05T00:37:48;7.90;;;3.30;;
41709;SDS011;59402;48.396;-4.472;2023-03-05T00:40:14;7.95;;;3.33;;
41709;SDS011;59402;48.396;-4.472;2023-03-05T00:42:40;13.25;;;3.60;;
41709;SDS011;59402;48.396;-4.472;2023-03-05T00:45:06;11.50;;;3.08;;
41709;SDS011;59402;48.396;-4.472;2023-03-05T00:47:32;9.80;;;3.60;;
41709;SDS011;59402;48.396;-4.472;2023-03-05T00:49:58;12.75;;;3.28;;
41709;SDS011;59402;48.396;-4.472;2023-03-05T00:52:24;7.95;;;3.78;;
41709;SDS011;59402;48.396;-4.472;2023-03-05T00:54:50;9.70;;;3.15;;
41709;SDS011;59402;48.396;-4.472;2023-03-05T00:57:16;8.65;;;3.10;;
41709;SDS011;59402;48.396;-4.472;2023-03-05T00:59:41;10.73;;;3.35;;
41709;SDS011;59402;48.396;-4.472;2023-03-05T01:02:07;8.80;;;3.35;;
41709;SDS011;59402;48.396;-4.472;2023-03-05T01:04:33;9.00;;;3.47;;
41709;SDS011;59402;48.396;-4.472;2023-03-05T01:06:59;7.28;;;2.70;;
41709;SDS011;59402;48.396;-4.472;2023-03-05T01:09:25;10.43;;;3.20;;
41709;SDS011;59402;48.396;-4.472;2023-03-05T01:11:51;8.70;;;3.20;;
41709;SDS011;59402;48.396;-4.472;2023-03-05T01:14:17;12.88;;;3.30;;
41709;SDS011;59402;48.396;-4.472;2023-03-05T01:16:43;7.20;;;2.85;;
41709;SDS011;59402;48.396;-4.472;2023-03-05T01:19:09;10.77;;;3.53;;
41709;SDS011;59402;48.396;-4.472;2023-03-05T01:21:35;6.50;;;2.92;;
41709;SDS011;59402;48.396;-4.472;2023-03-05T01:24:01;8.07;;;3.10;;
41709;SDS011;59402;48.396;-4.472;2023-03-05T01:26:28;8.05;;;3.00;;
41709;SDS011;59402;48.396;-4.472;2023-03-05T01:28:54;6.88;;;2.80;;
41709;SDS011;59402;48.396;-4.472;2023-03-05T01:31:20;8.65;;;2.75;;
41709;SDS011;59402;48.396;-4.472;2023-03-05T01:33:46;9.45;;;3.13;;
41709;SDS011;59402;48.396;-4.472;2023-03-05T01:36:13;6.53;;;2.83;;
41709;SDS011;59402;48.396;-4.472;2023-03-05T01:38:44;7.43;;;3.15;;
41709;SDS011;59402;48.396;-4.472;2023-03-05T01:41:11;8.82;;;2.92;;
41709;SDS011;59402;48.396;-4.472;2023-03-05T01:43:38;5.75;;;2.60;;
41709;SDS011;59402;48.396;-4.472;2023-03-05T01:48:50;7.63;;;2.80;;
41709;SDS011;59402;48.396;-4.472;2023-03-05T01:51:23;7.43;;;2.80;;
41709;SDS011;59402;48.396;-4.472;2023-03-05T01:53:50;6.80;;;2.70;;
41709;SDS011;59402;48.396;-4.472;2023-03-05T01:56:17;8.23;;;3.17;;
41709;SDS011;59402;48.396;-4.472;2023-03-05T01:58:43;7.72;;;2.88;;
41709;SDS011;59402;48.396;-4.472;2023-03-05T02:01:09;9.02;;;3.38;;
41709;SDS011;59402;48.396;-4.472;2023-03-05T02:03:35;9.30;;;3.60;;
41709;SDS011;59402;48.396;-4.472;2023-03-05T02:06:01;8.73;;;3.40;;
41709;SDS011;59402;48.396;-4.472;2023-03-05T02:08:27;10.70;;;3.28;;
41709;SDS011;59402;48.396;-4.472;2023-03-05T02:10:53;8.82;;;3.30;;
41709;SDS011;59402;48.396;-4.472;2023-03-05T02:13:23;9.15;;;3.22;;
41709;SDS011;59402;48.396;-4.472;2023-03-05T02:15:50;7.65;;;3.28;;
41709;SDS011;59402;48.396;-4.472;2023-03-05T02:18:17;9.27;;;3.20;;
41709;SDS011;59402;48.396;-4.472;2023-03-05T02:23:11;9.50;;;3.20;;
41709;SDS011;59402;48.396;-4.472;2023-03-05T02:25:36;8.65;;;3.67;;
41709;SDS011;59402;48.396;-4.472;2023-03-05T02:28:05;9.23;;;3.50;;
41709;SDS011;59402;48.396;-4.472;2023-03-05T02:30:46;8.80;;;3.97;;
41709;SDS011;59402;48.396;-4.472;2023-03-05T02:33:13;10.90;;;4.10;;
41709;SDS011;59402;48.396;-4.472;2023-03-05T02:35:40;10.02;;;3.15;;
41709;SDS011;59402;48.396;-4.472;2023-03-05T02:40:33;9.15;;;3.63;;
41709;SDS011;59402;48.396;-4.472;2023-03-05T02:43:00;8.88;;;4.15;;
41709;SDS011;59402;48.396;-4.472;2023-03-05T02:45:26;7.63;;;3.55;;
41709;SDS011;59402;48.396;-4.472;2023-03-05T02:47:52;8.95;;;3.47;;
41709;SDS011;59402;48.396;-4.472;2023-03-05T02:50:19;10.05;;;3.67;;
41709;SDS011;59402;48.396;-4.472;2023-03-05T02:52:45;8.52;;;3.70;;
41709;SDS011;59402;48.396;-4.472;2023-03-05T02:55:14;7.10;;;3.35;;
41709;SDS011;59402;48.396;-4.472;2023-03-05T02:57:41;11.20;;;3.13;;
41709;SDS011;59402;48.396;-4.472;2023-03-05T03:00:07;8.40;;;3.58;;
41709;SDS011;59402;48.396;-4.472;2023-03-05T03:02:33;9.95;;;3.45;;
41709;SDS011;59402;48.396;-4.472;2023-03-05T03:05:00;6.00;;;3.20;;
41709;SDS011;59402;48.396;-4.472;2023-03-05T03:07:25;9.75;;;3.60;;
41709;SDS011;59402;48.396;-4.472;2023-03-05T03:09:51;10.27;;;3.50;;
41709;SDS011;59402;48.396;-4.472;2023-03-05T03:12:17;7.78;;;3.28;;
41709;SDS011;59402;48.396;-4.472;2023-03-05T03:14:43;10.15;;;3.15;;
41709;SDS011;59402;48.396;-4.472;2023-03-05T03:17:10;11.52;;;3.42;;
41709;SDS011;59402;48.396;-4.472;2023-03-05T03:19:37;7.95;;;3.13;;
41709;SDS011;59402;48.396;-4.472;2023-03-05T03:22:04;8.45;;;3.03;;
41709;SDS011;59402;48.396;-4.472;2023-03-05T03:24:31;7.78;;;3.15;;
41709;SDS011;59402;48.396;-4.472;2023-03-05T03:26:57;9.77;;;3.28;;
41709;SDS011;59402;48.396;-4.472;2023-03-05T03:29:23;8.55;;;3.25;;
41709;SDS011;59402;48.396;-4.472;2023-03-05T03:31:49;11.35;;;3.10;;
41709;SDS011;59402;48.396;-4.472;2023-03-05T03:34:15;6.05;;;3.25;;
41709;SDS011;59402;48.396;-4.472;2023-03-05T03:36:44;6.13;;;2.45;;
41709;SDS011;59402;48.396;-4.472;2023-03-05T03:39:11;8.68;;;3.08;;
41709;SDS011;59402;48.396;-4.472;2023-03-05T03:41:46;7.63;;;3.33;;
41709;SDS011;59402;48.396;-4.472;2023-03-05T03:44:13;7.85;;;2.60;;
41709;SDS011;59402;48.396;-4.472;2023-03-05T03:46:41;7.63;;;3.08;;
41709;SDS011;59402;48.396;-4.472;2023-03-05T03:49:11;6.60;;;2.83;;
41709;SDS011;59402;48.396;-4.472;2023-03-05T03:51:44;9.40;;;3.08;;
41709;SDS011;59402;48.396;-4.472;2023-03-05T03:54:10;8.50;;;3.20;;
41709;SDS011;59402;48.396;-4.472;2023-03-05T03:56:36;8.27;;;2.90;;
41709;SDS011;59402;48.396;-4.472;2023-03-05T03:59:01;7.97;;;2.70;;
41709;SDS011;59402;48.396;-4.472;2023-03-05T04:01:27;9.07;;;2.95;;
41709;SDS011;59402;48.396;-4.472;2023-03-05T04:03:53;6.72;;;2.42;;
41709;SDS011;59402;48.396;-4.472;2023-03-05T04:06:19;8.02;;;2.75;;
41709;SDS011;59402;48.396;-4.472;2023-03-05T04:08:45;7.45;;;3.05;;
41709;SDS011;59402;48.396;-4.472;2023-03-05T04:11:10;8.50;;;3.03;;
41709;SDS011;59402;48.396;-4.472;2023-03-05T04:13:36;8.57;;;3.38;;
41709;SDS011;59402;48.396;-4.472;2023-03-05T04:16:02;8.00;;;2.80;;
41709;SDS011;59402;48.396;-4.472;2023-03-05T04:18:28;8.98;;;3.05;;
41709;SDS011;59402;48.396;-4.472;2023-03-05T04:20:53;9.27;;;2.75;;
41709;SDS011;59402;48.396;-4.472;2023-03-05T04:23:19;8.38;;;2.65;;
41709;SDS011;59402;48.396;-4.472;2023-03-05T04:25:45;6.93;;;2.33;;
41709;SDS011;59402;48.396;-4.472;2023-03-05T04:28:10;9.35;;;2.67;;
41709;SDS011;59402;48.396;-4.472;2023-03-05T04:30:36;7.95;;;2.40;;
41709;SDS011;59402;48.396;-4.472;2023-03-05T04:33:03;8.13;;;2.17;;
41709;SDS011;59402;48.396;-4.472;2023-03-05T04:35:28;7.20;;;2.20;;
41709;SDS011;59402;48.396;-4.472;2023-03-05T04:37:54;9.32;;;2.83;;
41709;SDS011;59402;48.396;-4.472;2023-03-05T04:40:20;6.78;;;2.42;;
41709;SDS011;59402;48.396;-4.472;2023-03-05T04:42:45;9.32;;;2.92;;
41709;SDS011;59402;48.396;-4.472;2023-03-05T04:45:11;8.45;;;2.25;;
41709;SDS011;59402;48.396;-4.472;2023-03-05T04:47:37;7.57;;;2.50;;
41709;SDS011;59402;48.396;-4.472;2023-03-05T04:50:04;6.28;;;2.75;;
41709;SDS011;59402;48.396;-4.472;2023-03-05T04:52:30;5.28;;;2.33;;
41709;SDS011;59402;48.396;-4.472;2023-03-05T04:54:56;10.55;;;2.15;;
41709;SDS011;59402;48.396;-4.472;2023-03-05T04:57:22;6.88;;;2.25;;
41709;SDS011;59402;48.396;-4.472;2023-03-05T04:59:47;6.75;;;2.50;;
41709;SDS011;59402;48.396;-4.472;2023-03-05T05:02:13;5.75;;;2.63;;
41709;SDS011;59402;48.396;-4.472;2023-03-05T05:04:39;6.45;;;2.38;;
41709;SDS011;59402;48.396;-4.472;2023-03-05T05:07:09;9.70;;;2.25;;
41709;SDS011;59402;48.396;-4.472;2023-03-05T05:09:36;7.35;;;2.63;;
41709;SDS011;59402;48.396;-4.472;2023-03-05T05:12:02;6.73;;;2.40;;
41709;SDS011;59402;48.396;-4.472;2023-03-05T05:14:28;6.55;;;2.10;;
41709;SDS011;59402;48.396;-4.472;2023-03-05T05:16:54;7.03;;;2.15;;
41709;SDS011;59402;48.396;-4.472;2023-03-05T05:19:19;10.80;;;2.25;;
41709;SDS011;59402;48.396;-4.472;2023-03-05T05:21:45;8.02;;;2.08;;
41709;SDS011;59402;48.396;-4.472;2023-03-05T05:24:11;9.45;;;2.40;;
41709;SDS011;59402;48.396;-4.472;2023-03-05T05:26:37;4.68;;;1.77;;
41709;SDS011;59402;48.396;-4.472;2023-03-05T05:29:03;5.60;;;2.20;;
41709;SDS011;59402;48.396;-4.472;2023-03-05T05:31:28;5.38;;;2.00;;
41709;SDS011;59402;48.396;-4.472;2023-03-05T05:33:54;7.68;;;2.08;;
41709;SDS011;59402;48.396;-4.472;2023-03-05T05:36:20;5.68;;;1.80;;
41709;SDS011;59402;48.396;-4.472;2023-03-05T05:38:46;8.70;;;2.35;;
41709;SDS011;59402;48.396;-4.472;2023-03-05T05:41:13;5.75;;;2.30;;
41709;SDS011;59402;48.396;-4.472;2023-03-05T05:43:40;8.73;;;2.53;;
41709;SDS011;59402;48.396;-4.472;2023-03-05T05:46:07;6.85;;;2.40;;
41709;SDS011;59402;48.396;-4.472;2023-03-05T05:48:36;5.90;;;2.10;;
41709;SDS011;59402;48.396;-4.472;2023-03-05T05:51:05;6.97;;;2.00;;
41709;SDS011;59402;48.396;-4.472;2023-03-05T05:53:31;8.07;;;2.47;;
41709;SDS011;59402;48.396;-4.472;2023-03-05T05:55:57;8.23;;;2.40;;
41709;SDS011;59402;48.396;-4.472;2023-03-05T05:58:23;7.93;;;2.53;;
41709;SDS011;59402;48.396;-4.472;2023-03-05T06:00:49;6.93;;;2.25;;
41709;SDS011;59402;48.396;-4.472;2023-03-05T06:03:14;6.45;;;2.05;;
41709;SDS011;59402;48.396;-4.472;2023-03-05T06:05:41;7.13;;;2.25;;
41709;SDS011;59402;48.396;-4.472;2023-03-05T06:08:07;5.00;;;2.40;;
41709;SDS011;59402;48.396;-4.472;2023-03-05T06:10:33;6.15;;;2.20;;
41709;SDS011;59402;48.396;-4.472;2023-03-05T06:12:59;11.23;;;2.40;;
41709;SDS011;59402;48.396;-4.472;2023-03-05T06:15:25;7.20;;;2.08;;
41709;SDS011;59402;48.396;-4.472;2023-03-05T06:17:51;9.35;;;2.42;;
41709;SDS011;59402;48.396;-4.472;2023-03-05T06:20:18;6.60;;;2.25;;
41709;SDS011;59402;48.396;-4.472;2023-03-05T06:22:44;5.90;;;2.00;;
41709;SDS011;59402;48.396;-4.472;2023-03-05T06:25:10;6.85;;;1.95;;
41709;SDS011;59402;48.396;-4.472;2023-03-05T06:27:36;5.63;;;1.90;;
41709;SDS011;59402;48.396;-4.472;2023-03-05T06:30:03;7.35;;;2.20;;
41709;SDS011;59402;48.396;-4.472;2023-03-05T06:32:30;6.88;;;2.45;;
41709;SDS011;59402;48.396;-4.472;2023-03-05T06:34:57;8.43;;;2.30;;
41709;SDS011;59402;48.396;-4.472;2023-03-05T06:37:23;7.45;;;2.92;;
41709;SDS011;59402;48.396;-4.472;2023-03-05T06:39:49;9.02;;;2.97;;
41709;SDS011;59402;48.396;-4.472;2023-03-05T06:42:14;8.48;;;2.38;;
41709;SDS011;59402;48.396;-4.472;2023-03-05T06:44:43;8.88;;;2.47;;
41709;SDS011;59402;48.396;-4.472;2023-03-05T06:47:09;8.15;;;2.38;;
41709;SDS011;59402;48.396;-4.472;2023-03-05T06:49:36;5.90;;;2.47;;
41709;SDS011;59402;48.396;-4.472;2023-03-05T06:52:02;6.60;;;2.17;;
41709;SDS011;59402;48.396;-4.472;2023-03-05T06:54:28;7.85;;;2.60;;
41709;SDS011;59402;48.396;-4.472;2023-03-05T06:56:54;8.98;;;2.88;;
41709;SDS011;59402;48.396;-4.472;2023-03-05T06:59:20;7.13;;;2.38;;
41709;SDS011;59402;48.396;-4.472;2023-03-05T07:01:46;9.40;;;2.80;;
41709;SDS011;59402;48.396;-4.472;2023-03-05T07:04:12;6.50;;;2.35;;
41709;SDS011;59402;48.396;-4.472;2023-03-05T07:06:38;8.18;;;2.78;;
41709;SDS011;59402;48.396;-4.472;2023-03-05T07:09:05;10.02;;;2.75;;
41709;SDS011;59402;48.396;-4.472;2023-03-05T07:11:31;9.27;;;3.28;;
41709;SDS011;59402;48.396;-4.472;2023-03-05T07:13:58;9.27;;;3.15;;
41709;SDS011;59402;48.396;-4.472;2023-03-05T07:16:25;9.20;;;3.28;;
41709;SDS011;59402;48.396;-4.472;2023-03-05T07:18:52;5.07;;;3.03;;
41709;SDS011;59402;48.396;-4.472;2023-03-05T07:21:20;7.25;;;3.30;;
41709;SDS011;59402;48.396;-4.472;2023-03-05T07:23:48;9.15;;;2.97;;
41709;SDS011;59402;48.396;-4.472;2023-03-05T07:26:14;7.72;;;2.65;;
41709;SDS011;59402;48.396;-4.472;2023-03-05T07:28:41;7.53;;;2.90;;
41709;SDS011;59402;48.396;-4.472;2023-03-05T07:31:08;11.60;;;3.00;;
41709;SDS011;59402;48.396;-4.472;2023-03-05T07:33:37;8.48;;;3.00;;
41709;SDS011;59402;48.396;-4.472;2023-03-05T07:36:03;8.95;;;2.70;;
41709;SDS011;59402;48.396;-4.472;2023-03-05T07:38:31;7.30;;;2.67;;
41709;SDS011;59402;48.396;-4.472;2023-03-05T07:41:00;10.07;;;2.90;;
41709;SDS011;59402;48.396;-4.472;2023-03-05T07:43:28;5.63;;;2.88;;
41709;SDS011;59402;48.396;-4.472;2023-03-05T07:45:54;7.65;;;3.72;;
41709;SDS011;59402;48.396;-4.472;2023-03-05T07:48:19;6.60;;;2.60;;
41709;SDS011;59402;48.396;-4.472;2023-03-05T07:50:45;8.95;;;3.35;;
41709;SDS011;59402;48.396;-4.472;2023-03-05T07:53:13;9.20;;;3.00;;
41709;SDS011;59402;48.396;-4.472;2023-03-05T07:55:42;9.80;;;2.90;;
41709;SDS011;59402;48.396;-4.472;2023-03-05T07:58:09;9.27;;;3.20;;
41709;SDS011;59402;48.396;-4.472;2023-03-05T08:00:36;8.35;;;3.20;;
41709;SDS011;59402;48.396;-4.472;2023-03-05T08:03:02;8.75;;;2.90;;
41709;SDS011;59402;48.396;-4.472;2023-03-05T08:05:27;8.07;;;3.22;;
41709;SDS011;59402;48.396;-4.472;2023-03-05T08:07:53;8.77;;;3.00;;
41709;SDS011;59402;48.396;-4.472;2023-03-05T08:10:19;7.40;;;3.00;;
41709;SDS011;59402;48.396;-4.472;2023-03-05T08:12:44;12.13;;;3.22;;
41709;SDS011;59402;48.396;-4.472;2023-03-05T08:15:10;8.60;;;3.45;;
41709;SDS011;59402;48.396;-4.472;2023-03-05T08:17:38;10.45;;;3.65;;
41709;SDS011;59402;48.396;-4.472;2023-03-05T08:20:04;9.57;;;3.65;;
41709;SDS011;59402;48.396;-4.472;2023-03-05T08:22:34;8.65;;;3.13;;
41709;SDS011;59402;48.396;-4.472;2023-03-05T08:25:00;6.88;;;2.85;;
41709;SDS011;59402;48.396;-4.472;2023-03-05T08:27:27;9.00;;;3.40;;
41709;SDS011;59402;48.396;-4.472;2023-03-05T08:29:52;8.02;;;3.33;;
41709;SDS011;59402;48.396;-4.472;2023-03-05T08:32:18;11.68;;;3.90;;
41709;SDS011;59402;48.396;-4.472;2023-03-05T08:34:44;10.75;;;4.00;;
41709;SDS011;59402;48.396;-4.472;2023-03-05T08:37:09;11.48;;;4.63;;
41709;SDS011;59402;48.396;-4.472;2023-03-05T08:39:35;8.82;;;3.45;;
41709;SDS011;59402;48.396;-4.472;2023-03-05T08:42:01;11.80;;;3.67;;
41709;SDS011;59402;48.396;-4.472;2023-03-05T08:44:28;7.55;;;3.50;;
41709;SDS011;59402;48.396;-4.472;2023-03-05T08:46:53;10.95;;;3.45;;
41709;SDS011;59402;48.396;-4.472;2023-03-05T08:49:19;6.20;;;3.45;;
41709;SDS011;59402;48.396;-4.472;2023-03-05T08:51:45;8.93;;;3.97;;
41709;SDS011;59402;48.396;-4.472;2023-03-05T08:54:11;7.40;;;3.45;;
41709;SDS011;59402;48.396;-4.472;2023-03-05T08:56:36;6.93;;;3.45;;
41709;SDS011;59402;48.396;-4.472;2023-03-05T08:59:02;8.45;;;3.63;;
41709;SDS011;59402;48.396;-4.472;2023-03-05T09:01:28;9.27;;;3.38;;
41709;SDS011;59402;48.396;-4.472;2023-03-05T09:03:56;7.90;;;3.65;;
41709;SDS011;59402;48.396;-4.472;2023-03-05T09:06:23;7.80;;;3.60;;
41709;SDS011;59402;48.396;-4.472;2023-03-05T09:08:49;8.32;;;3.90;;
41709;SDS011;59402;48.396;-4.472;2023-03-05T09:11:15;10.63;;;3.63;;
41709;SDS011;59402;48.396;-4.472;2023-03-05T09:13:41;8.43;;;3.58;;
41709;SDS011;59402;48.396;-4.472;2023-03-05T09:16:08;8.25;;;3.60;;
41709;SDS011;59402;48.396;-4.472;2023-03-05T09:18:39;8.68;;;3.25;;
41709;SDS011;59402;48.396;-4.472;2023-03-05T09:21:05;10.55;;;4.72;;
41709;SDS011;59402;48.396;-4.472;2023-03-05T09:23:32;8.80;;;4.00;;
41709;SDS011;59402;48.396;-4.472;2023-03-05T09:25:58;9.38;;;3.97;;
41709;SDS011;59402;48.396;-4.472;2023-03-05T09:28:24;6.05;;;3.05;;
41709;SDS011;59402;48.396;-4.472;2023-03-05T09:30:49;5.22;;;3.25;;
41709;SDS011;59402;48.396;-4.472;2023-03-05T09:33:15;7.25;;;3.47;;
41709;SDS011;59402;48.396;-4.472;2023-03-05T09:35:42;7.05;;;3.15;;
41709;SDS011;59402;48.396;-4.472;2023-03-05T09:38:08;6.75;;;3.22;;
41709;SDS011;59402;48.396;-4.472;2023-03-05T09:40:41;8.35;;;3.47;;
41709;SDS011;59402;48.396;-4.472;2023-03-05T09:43:20;6.35;;;2.50;;
41709;SDS011;59402;48.396;-4.472;2023-03-05T09:46:04;7.20;;;3.25;;
41709;SDS011;59402;48.396;-4.472;2023-03-05T09:51:18;10.50;;;3.38;;
41709;SDS011;59402;48.396;-4.472;2023-03-05T09:53:48;9.02;;;3.47;;
41709;SDS011;59402;48.396;-4.472;2023-03-05T09:56:19;9.85;;;3.35;;
41709;SDS011;59402;48.396;-4.472;2023-03-05T09:58:49;9.45;;;3.35;;
41709;SDS011;59402;48.396;-4.472;2023-03-05T10:01:19;8.00;;;3.00;;
41709;SDS011;59402;48.396;-4.472;2023-03-05T10:06:22;6.72;;;3.03;;
41709;SDS011;59402;48.396;-4.472;2023-03-05T10:08:51;4.70;;;3.08;;
41709;SDS011;59402;48.396;-4.472;2023-03-05T10:11:37;6.72;;;2.80;;
41709;SDS011;59402;48.396;-4.472;2023-03-05T10:16:49;11.85;;;6.78;;
41709;SDS011;59402;48.396;-4.472;2023-03-05T10:40:45;7.72;;;3.13;;
41709;SDS011;59402;48.396;-4.472;2023-03-05T10:50:56;7.15;;;3.08;;
41709;SDS011;59402;48.396;-4.472;2023-03-05T10:56:03;11.63;;;4.53;;
41709;SDS011;59402;48.396;-4.472;2023-03-05T10:58:30;9.15;;;4.95;;
41709;SDS011;59402;48.396;-4.472;2023-03-05T11:00:57;9.13;;;4.20;;
41709;SDS011;59402;48.396;-4.472;2023-03-05T11:06:26;8.52;;;3.45;;
41709;SDS011;59402;48.396;-4.472;2023-03-05T11:11:37;9.48;;;4.43;;
41709;SDS011;59402;48.396;-4.472;2023-03-05T11:14:02;9.07;;;4.22;;
41709;SDS011;59402;48.396;-4.472;2023-03-05T11:16:30;8.35;;;3.30;;
41709;SDS011;59402;48.396;-4.472;2023-03-05T11:22:10;7.45;;;3.22;;
41709;SDS011;59402;48.396;-4.472;2023-03-05T11:27:49;7.68;;;3.53;;
41709;SDS011;59402;48.396;-4.472;2023-03-05T11:33:12;9.27;;;4.95;;
41709;SDS011;59402;48.396;-4.472;2023-03-05T11:35:41;9.18;;;4.30;;
41709;SDS011;59402;48.396;-4.472;2023-03-05T11:40:48;9.77;;;3.80;;
41709;SDS011;59402;48.396;-4.472;2023-03-05T11:43:17;9.85;;;4.35;;
41709;SDS011;59402;48.396;-4.472;2023-03-05T11:45:44;9.93;;;3.63;;
41709;SDS011;59402;48.396;-4.472;2023-03-05T11:48:26;8.43;;;3.58;;
41709;SDS011;59402;48.396;-4.472;2023-03-05T11:50:56;12.43;;;4.97;;
41709;SDS011;59402;48.396;-4.472;2023-03-05T11:53:26;7.00;;;3.97;;
41709;SDS011;59402;48.396;-4.472;2023-03-05T11:56:04;8.70;;;5.05;;
41709;SDS011;59402;48.396;-4.472;2023-03-05T12:01:15;10.05;;;5.47;;
41709;SDS011;59402;48.396;-4.472;2023-03-05T12:08:43;10.82;;;4.10;;
41709;SDS011;59402;48.396;-4.472;2023-03-05T12:11:33;8.25;;;4.18;;
41709;SDS011;59402;48.396;-4.472;2023-03-05T12:22:01;14.80;;;3.88;;
41709;SDS011;59402;48.396;-4.472;2023-03-05T12:32:00;9.18;;;3.83;;
41709;SDS011;59402;48.396;-4.472;2023-03-05T12:37:08;10.20;;;5.15;;
41709;SDS011;59402;48.396;-4.472;2023-03-05T12:39:57;7.35;;;4.20;;
41709;SDS011;59402;48.396;-4.472;2023-03-05T12:47:42;8.40;;;3.90;;
41709;SDS011;59402;48.396;-4.472;2023-03-05T12:55:28;7.93;;;4.15;;
41709;SDS011;59402;48.396;-4.472;2023-03-05T13:01:06;7.57;;;4.00;;
41709;SDS011;59402;48.396;-4.472;2023-03-05T13:03:52;8.48;;;4.45;;
41709;SDS011;59402;48.396;-4.472;2023-03-05T13:06:28;6.25;;;3.72;;
41709;SDS011;59402;48.396;-4.472;2023-03-05T13:09:18;8.80;;;3.92;;
41709;SDS011;59402;48.396;-4.472;2023-03-05T13:11:49;9.10;;;4.18;;
41709;SDS011;59402;48.396;-4.472;2023-03-05T13:14:31;10.90;;;4.35;;
41709;SDS011;59402;48.396;-4.472;2023-03-05T13:16:59;8.50;;;4.30;;
41709;SDS011;59402;48.396;-4.472;2023-03-05T13:19:26;10.25;;;4.90;;
41709;SDS011;59402;48.396;-4.472;2023-03-05T13:21:56;10.20;;;4.93;;
41709;SDS011;59402;48.396;-4.472;2023-03-05T13:24:24;9.60;;;4.32;;
41709;SDS011;59402;48.396;-4.472;2023-03-05T13:26:50;11.57;;;4.55;;
41709;SDS011;59402;48.396;-4.472;2023-03-05T13:29:17;12.38;;;4.43;;
41709;SDS011;59402;48.396;-4.472;2023-03-05T13:31:47;10.38;;;4.97;;
41709;SDS011;59402;48.396;-4.472;2023-03-05T13:34:23;10.75;;;5.10;;
41709;SDS011;59402;48.396;-4.472;2023-03-05T13:36:58;11.63;;;4.63;;
41709;SDS011;59402;48.396;-4.472;2023-03-05T13:39:27;8.93;;;4.60;;
41709;SDS011;59402;48.396;-4.472;2023-03-05T13:42:05;9.90;;;5.05;;
41709;SDS011;59402;48.396;-4.472;2023-03-05T13:44:38;11.70;;;4.90;;
41709;SDS011;59402;48.396;-4.472;2023-03-05T13:49:45;9.00;;;5.05;;
41709;SDS011;59402;48.396;-4.472;2023-03-05T13:52:12;13.60;;;5.60;;
41709;SDS011;59402;48.396;-4.472;2023-03-05T13:54:58;11.40;;;5.28;;
41709;SDS011;59402;48.396;-4.472;2023-03-05T14:00:01;13.45;;;5.28;;
41709;SDS011;59402;48.396;-4.472;2023-03-05T14:02:30;10.88;;;5.63;;
41709;SDS011;59402;48.396;-4.472;2023-03-05T14:04:56;10.63;;;5.20;;
41709;SDS011;59402;48.396;-4.472;2023-03-05T14:09:50;11.30;;;5.18;;
41709;SDS011;59402;48.396;-4.472;2023-03-05T14:20:37;11.38;;;5.38;;
41709;SDS011;59402;48.396;-4.472;2023-03-05T14:23:29;9.85;;;5.32;;
41709;SDS011;59402;48.396;-4.472;2023-03-05T14:28:41;10.32;;;5.22;;
41709;SDS011;59402;48.396;-4.472;2023-03-05T14:31:11;10.80;;;5.55;;
41709;SDS011;59402;48.396;-4.472;2023-03-05T14:33:40;10.40;;;6.18;;
41709;SDS011;59402;48.396;-4.472;2023-03-05T14:36:06;17.30;;;6.57;;
41709;SDS011;59402;48.396;-4.472;2023-03-05T14:38:33;17.08;;;6.03;;
41709;SDS011;59402;48.396;-4.472;2023-03-05T14:43:46;12.73;;;6.25;;
41709;SDS011;59402;48.396;-4.472;2023-03-05T14:46:12;10.70;;;6.28;;
41709;SDS011;59402;48.396;-4.472;2023-03-05T14:48:38;10.90;;;6.10;;
41709;SDS011;59402;48.396;-4.472;2023-03-05T14:51:03;12.10;;;6.55;;
41709;SDS011;59402;48.396;-4.472;2023-03-05T14:53:32;14.32;;;6.40;;
41709;SDS011;59402;48.396;-4.472;2023-03-05T14:56:03;16.02;;;7.20;;
41709;SDS011;59402;48.396;-4.472;2023-03-05T14:58:31;14.18;;;6.55;;
41709;SDS011;59402;48.396;-4.472;2023-03-05T15:00:59;13.48;;;6.90;;
41709;SDS011;59402;48.396;-4.472;2023-03-05T15:03:25;16.70;;;7.85;;
41709;SDS011;59402;48.396;-4.472;2023-03-05T15:05:53;13.40;;;7.00;;
41709;SDS011;59402;48.396;-4.472;2023-03-05T15:08:24;14.65;;;7.50;;
41709;SDS011;59402;48.396;-4.472;2023-03-05T15:10:52;11.48;;;6.97;;
41709;SDS011;59402;48.396;-4.472;2023-03-05T15:13:18;15.40;;;7.28;;
41709;SDS011;59402;48.396;-4.472;2023-03-05T15:15:45;14.83;;;8.20;;
41709;SDS011;59402;48.396;-4.472;2023-03-05T15:18:12;14.13;;;7.55;;
41709;SDS011;59402;48.396;-4.472;2023-03-05T15:20:40;14.68;;;7.97;;
41709;SDS011;59402;48.396;-4.472;2023-03-05T15:23:06;16.88;;;9.00;;
41709;SDS011;59402;48.396;-4.472;2023-03-05T15:25:32;19.33;;;10.02;;
41709;SDS011;59402;48.396;-4.472;2023-03-05T15:27:58;17.88;;;10.05;;
41709;SDS011;59402;48.396;-4.472;2023-03-05T15:30:25;21.15;;;10.27;;
41709;SDS011;59402;48.396;-4.472;2023-03-05T15:32:52;17.35;;;9.68;;
41709;SDS011;59402;48.396;-4.472;2023-03-05T15:35:18;15.70;;;9.55;;
41709;SDS011;59402;48.396;-4.472;2023-03-05T15:37:44;20.20;;;10.80;;
41709;SDS011;59402;48.396;-4.472;2023-03-05T15:40:10;16.40;;;9.80;;
41709;SDS011;59402;48.396;-4.472;2023-03-05T15:42:36;17.30;;;10.48;;
41709;SDS011;59402;48.396;-4.472;2023-03-05T15:45:02;18.77;;;10.02;;
41709;SDS011;59402;48.396;-4.472;2023-03-05T15:47:28;19.77;;;10.85;;
41709;SDS011;59402;48.396;-4.472;2023-03-05T15:49:54;18.05;;;10.63;;
41709;SDS011;59402;48.396;-4.472;2023-03-05T15:52:20;17.63;;;10.73;;
41709;SDS011;59402;48.396;-4.472;2023-03-05T15:54:46;17.15;;;10.85;;
41709;SDS011;59402;48.396;-4.472;2023-03-05T15:57:11;17.92;;;10.93;;
41709;SDS011;59402;48.396;-4.472;2023-03-05T15:59:37;20.10;;;11.15;;
41709;SDS011;59402;48.396;-4.472;2023-03-05T16:02:03;18.88;;;11.98;;
41709;SDS011;59402;48.396;-4.472;2023-03-05T16:04:29;20.08;;;12.45;;
41709;SDS011;59402;48.396;-4.472;2023-03-05T16:06:56;19.55;;;12.82;;
41709;SDS011;59402;48.396;-4.472;2023-03-05T16:09:23;19.98;;;12.85;;
41709;SDS011;59402;48.396;-4.472;2023-03-05T16:11:51;25.92;;;14.07;;
41709;SDS011;59402;48.396;-4.472;2023-03-05T16:14:19;21.83;;;13.55;;
41709;SDS011;59402;48.396;-4.472;2023-03-05T16:16:47;21.20;;;13.35;;
41709;SDS011;59402;48.396;-4.472;2023-03-05T16:19:15;24.38;;;14.57;;
41709;SDS011;59402;48.396;-4.472;2023-03-05T16:21:42;22.70;;;14.82;;
41709;SDS011;59402;48.396;-4.472;2023-03-05T16:24:08;28.58;;;15.73;;
41709;SDS011;59402;48.396;-4.472;2023-03-05T16:26:34;24.63;;;15.80;;
41709;SDS011;59402;48.396;-4.472;2023-03-05T16:29:01;23.50;;;14.57;;
41709;SDS011;59402;48.396;-4.472;2023-03-05T16:31:31;29.15;;;17.55;;
41709;SDS011;59402;48.396;-4.472;2023-03-05T16:33:59;27.73;;;15.65;;
41709;SDS011;59402;48.396;-4.472;2023-03-05T16:36:29;28.13;;;15.63;;
41709;SDS011;59402;48.396;-4.472;2023-03-05T16:38:56;24.00;;;15.98;;